sensor_id;sensor_type;location;lat;lon;timestamp;P1;durP1;ratioP1;P2;durP2;ratioP2
39958;SDS011;25639;53.634;9.880;2023-11-21T00:00:17;81.65;;;27.55;;
39958;SDS011;25639;53.634;9.880;2023-11-21T00:02:43;70.68;;;26.67;;
39958;SDS011;25639;53.634;9.880;2023-11-21T00:05:12;59.13;;;24.55;;
39958;SDS011;25639;53.634;9.880;2023-11-21T00:07:41;72.40;;;26.98;;
39958;SDS011;25639;53.634;9.880;2023-11-21T00:10:07;76.38;;;25.95;;
39958;SDS011;25639;53.634;9.880;2023-11-21T00:12:34;64.65;;;25.27;;
39958;SDS011;25639;53.634;9.880;2023-11-21T00:15:00;71.85;;;25.83;;
39958;SDS011;25639;53.634;9.880;2023-11-21T00:17:26;68.85;;;25.85;;
39958;SDS011;25639;53.634;9.880;2023-11-21T00:19:52;63.15;;;25.38;;
39958;SDS011;25639;53.634;9.880;2023-11-21T00:22:17;67.30;;;25.30;;
39958;SDS011;25639;53.634;9.880;2023-11-21T00:24:43;65.45;;;24.85;;
39958;SDS011;25639;53.634;9.880;2023-11-21T00:27:08;68.50;;;24.50;;
39958;SDS011;25639;53.634;9.880;2023-11-21T00:29:33;62.60;;;22.70;;
39958;SDS011;25639;53.634;9.880;2023-11-21T00:31:58;58.17;;;22.80;;
39958;SDS011;25639;53.634;9.880;2023-11-21T00:34:24;60.08;;;23.45;;
39958;SDS011;25639;53.634;9.880;2023-11-21T00:36:49;51.33;;;21.33;;
39958;SDS011;25639;53.634;9.880;2023-11-21T00:39:14;54.60;;;21.38;;
39958;SDS011;25639;53.634;9.880;2023-11-21T00:41:40;58.55;;;21.48;;
39958;SDS011;25639;53.634;9.880;2023-11-21T00:44:06;59.67;;;22.60;;
39958;SDS011;25639;53.634;9.880;2023-11-21T00:46:32;58.08;;;23.00;;
39958;SDS011;25639;53.634;9.880;2023-11-21T00:48:57;60.10;;;23.00;;
39958;SDS011;25639;53.634;9.880;2023-11-21T00:51:22;64.38;;;23.83;;
39958;SDS011;25639;53.634;9.880;2023-11-21T00:53:48;55.33;;;23.73;;
39958;SDS011;25639;53.634;9.880;2023-11-21T00:56:13;58.00;;;23.23;;
39958;SDS011;25639;53.634;9.880;2023-11-21T00:58:39;60.70;;;23.58;;
39958;SDS011;25639;53.634;9.880;2023-11-21T01:01:09;62.45;;;23.38;;
39958;SDS011;25639;53.634;9.880;2023-11-21T01:03:34;53.42;;;21.70;;
39958;SDS011;25639;53.634;9.880;2023-11-21T01:06:00;58.42;;;22.95;;
39958;SDS011;25639;53.634;9.880;2023-11-21T01:08:25;61.40;;;21.80;;
39958;SDS011;25639;53.634;9.880;2023-11-21T01:10:50;61.00;;;23.55;;
39958;SDS011;25639;53.634;9.880;2023-11-21T01:13:16;67.63;;;24.35;;
39958;SDS011;25639;53.634;9.880;2023-11-21T01:15:41;75.28;;;24.77;;
39958;SDS011;25639;53.634;9.880;2023-11-21T01:18:07;65.13;;;23.92;;
39958;SDS011;25639;53.634;9.880;2023-11-21T01:20:33;65.03;;;25.30;;
39958;SDS011;25639;53.634;9.880;2023-11-21T01:22:59;69.13;;;25.45;;
39958;SDS011;25639;53.634;9.880;2023-11-21T01:25:24;61.25;;;22.48;;
39958;SDS011;25639;53.634;9.880;2023-11-21T01:27:49;60.30;;;24.00;;
39958;SDS011;25639;53.634;9.880;2023-11-21T01:30:15;62.20;;;22.38;;
39958;SDS011;25639;53.634;9.880;2023-11-21T01:32:41;49.13;;;20.48;;
39958;SDS011;25639;53.634;9.880;2023-11-21T01:35:06;51.25;;;20.20;;
39958;SDS011;25639;53.634;9.880;2023-11-21T01:37:32;46.42;;;20.30;;
39958;SDS011;25639;53.634;9.880;2023-11-21T01:39:58;54.42;;;19.90;;
39958;SDS011;25639;53.634;9.880;2023-11-21T01:42:24;54.78;;;20.70;;
39958;SDS011;25639;53.634;9.880;2023-11-21T01:44:49;48.50;;;20.35;;
39958;SDS011;25639;53.634;9.880;2023-11-21T01:47:14;49.05;;;20.05;;
39958;SDS011;25639;53.634;9.880;2023-11-21T01:49:43;42.03;;;18.02;;
39958;SDS011;25639;53.634;9.880;2023-11-21T01:52:09;46.80;;;18.75;;
39958;SDS011;25639;53.634;9.880;2023-11-21T01:54:36;45.33;;;19.75;;
39958;SDS011;25639;53.634;9.880;2023-11-21T01:57:02;44.17;;;20.08;;
39958;SDS011;25639;53.634;9.880;2023-11-21T01:59:34;40.97;;;18.65;;
39958;SDS011;25639;53.634;9.880;2023-11-21T02:02:01;48.50;;;20.77;;
39958;SDS011;25639;53.634;9.880;2023-11-21T02:04:29;48.50;;;21.02;;
39958;SDS011;25639;53.634;9.880;2023-11-21T02:06:55;43.60;;;18.88;;
39958;SDS011;25639;53.634;9.880;2023-11-21T02:09:25;45.17;;;19.00;;
39958;SDS011;25639;53.634;9.880;2023-11-21T02:11:52;42.05;;;19.10;;
39958;SDS011;25639;53.634;9.880;2023-11-21T02:14:18;42.60;;;18.25;;
39958;SDS011;25639;53.634;9.880;2023-11-21T02:16:45;38.20;;;17.15;;
39958;SDS011;25639;53.634;9.880;2023-11-21T02:19:12;36.40;;;17.23;;
39958;SDS011;25639;53.634;9.880;2023-11-21T02:21:49;32.40;;;15.82;;
39958;SDS011;25639;53.634;9.880;2023-11-21T02:24:16;26.77;;;13.45;;
39958;SDS011;25639;53.634;9.880;2023-11-21T02:26:45;28.42;;;12.77;;
39958;SDS011;25639;53.634;9.880;2023-11-21T02:29:11;22.58;;;12.25;;
39958;SDS011;25639;53.634;9.880;2023-11-21T02:31:38;23.85;;;12.40;;
39958;SDS011;25639;53.634;9.880;2023-11-21T02:34:12;28.75;;;12.10;;
39958;SDS011;25639;53.634;9.880;2023-11-21T02:36:38;21.02;;;11.00;;
39958;SDS011;25639;53.634;9.880;2023-11-21T02:39:04;19.63;;;10.02;;
39958;SDS011;25639;53.634;9.880;2023-11-21T02:41:29;21.75;;;11.23;;
39958;SDS011;25639;53.634;9.880;2023-11-21T02:43:55;19.38;;;9.77;;
39958;SDS011;25639;53.634;9.880;2023-11-21T02:46:20;17.85;;;9.93;;
39958;SDS011;25639;53.634;9.880;2023-11-21T02:48:45;20.77;;;9.68;;
39958;SDS011;25639;53.634;9.880;2023-11-21T02:51:10;22.98;;;10.90;;
39958;SDS011;25639;53.634;9.880;2023-11-21T02:53:36;19.40;;;9.38;;
39958;SDS011;25639;53.634;9.880;2023-11-21T02:56:03;20.83;;;9.75;;
39958;SDS011;25639;53.634;9.880;2023-11-21T02:58:29;20.77;;;10.05;;
39958;SDS011;25639;53.634;9.880;2023-11-21T03:00:55;20.92;;;10.05;;
39958;SDS011;25639;53.634;9.880;2023-11-21T03:03:20;19.27;;;9.73;;
39958;SDS011;25639;53.634;9.880;2023-11-21T03:05:45;21.25;;;10.30;;
39958;SDS011;25639;53.634;9.880;2023-11-21T03:08:10;19.73;;;10.35;;
39958;SDS011;25639;53.634;9.880;2023-11-21T03:10:36;20.40;;;9.45;;
39958;SDS011;25639;53.634;9.880;2023-11-21T03:13:01;19.52;;;9.90;;
39958;SDS011;25639;53.634;9.880;2023-11-21T03:15:26;19.17;;;9.50;;
39958;SDS011;25639;53.634;9.880;2023-11-21T03:17:51;21.13;;;9.80;;
39958;SDS011;25639;53.634;9.880;2023-11-21T03:20:17;19.95;;;10.30;;
39958;SDS011;25639;53.634;9.880;2023-11-21T03:22:42;23.17;;;10.23;;
39958;SDS011;25639;53.634;9.880;2023-11-21T03:25:07;18.60;;;11.02;;
39958;SDS011;25639;53.634;9.880;2023-11-21T03:27:35;20.02;;;10.07;;
39958;SDS011;25639;53.634;9.880;2023-11-21T03:30:01;18.20;;;9.38;;
39958;SDS011;25639;53.634;9.880;2023-11-21T03:32:28;17.33;;;9.27;;
39958;SDS011;25639;53.634;9.880;2023-11-21T03:34:55;14.50;;;8.57;;
39958;SDS011;25639;53.634;9.880;2023-11-21T03:37:21;21.42;;;8.90;;
39958;SDS011;25639;53.634;9.880;2023-11-21T03:39:46;16.10;;;9.48;;
39958;SDS011;25639;53.634;9.880;2023-11-21T03:42:12;19.13;;;9.48;;
39958;SDS011;25639;53.634;9.880;2023-11-21T03:44:37;22.25;;;9.32;;
39958;SDS011;25639;53.634;9.880;2023-11-21T03:47:02;15.18;;;8.80;;
39958;SDS011;25639;53.634;9.880;2023-11-21T03:49:28;20.05;;;10.10;;
39958;SDS011;25639;53.634;9.880;2023-11-21T03:51:54;17.27;;;9.43;;
39958;SDS011;25639;53.634;9.880;2023-11-21T03:54:19;17.42;;;9.68;;
39958;SDS011;25639;53.634;9.880;2023-11-21T03:56:45;16.67;;;9.30;;
39958;SDS011;25639;53.634;9.880;2023-11-21T03:59:10;20.48;;;10.63;;
39958;SDS011;25639;53.634;9.880;2023-11-21T04:01:36;16.80;;;9.82;;
39958;SDS011;25639;53.634;9.880;2023-11-21T04:04:02;20.90;;;10.65;;
39958;SDS011;25639;53.634;9.880;2023-11-21T04:06:27;18.58;;;10.18;;
39958;SDS011;25639;53.634;9.880;2023-11-21T04:08:52;19.25;;;10.65;;
39958;SDS011;25639;53.634;9.880;2023-11-21T04:11:18;24.98;;;11.27;;
39958;SDS011;25639;53.634;9.880;2023-11-21T04:13:43;22.80;;;11.75;;
39958;SDS011;25639;53.634;9.880;2023-11-21T04:16:09;24.95;;;11.07;;
39958;SDS011;25639;53.634;9.880;2023-11-21T04:18:38;18.38;;;10.85;;
39958;SDS011;25639;53.634;9.880;2023-11-21T04:21:06;22.77;;;11.65;;
39958;SDS011;25639;53.634;9.880;2023-11-21T04:23:33;19.45;;;10.65;;
39958;SDS011;25639;53.634;9.880;2023-11-21T04:25:58;19.40;;;11.07;;
39958;SDS011;25639;53.634;9.880;2023-11-21T04:28:23;20.23;;;11.00;;
39958;SDS011;25639;53.634;9.880;2023-11-21T04:30:49;21.83;;;10.93;;
39958;SDS011;25639;53.634;9.880;2023-11-21T04:33:15;20.77;;;10.18;;
39958;SDS011;25639;53.634;9.880;2023-11-21T04:35:41;21.45;;;11.27;;
39958;SDS011;25639;53.634;9.880;2023-11-21T04:38:06;21.80;;;11.40;;
39958;SDS011;25639;53.634;9.880;2023-11-21T04:40:32;48.90;;;11.23;;
39958;SDS011;25639;53.634;9.880;2023-11-21T04:42:57;22.33;;;11.27;;
39958;SDS011;25639;53.634;9.880;2023-11-21T04:45:22;19.27;;;10.85;;
39958;SDS011;25639;53.634;9.880;2023-11-21T04:47:48;19.42;;;10.45;;
39958;SDS011;25639;53.634;9.880;2023-11-21T04:50:13;22.73;;;11.05;;
39958;SDS011;25639;53.634;9.880;2023-11-21T04:52:38;17.95;;;10.27;;
39958;SDS011;25639;53.634;9.880;2023-11-21T04:55:04;24.10;;;11.23;;
39958;SDS011;25639;53.634;9.880;2023-11-21T04:57:31;20.27;;;10.60;;
39958;SDS011;25639;53.634;9.880;2023-11-21T04:59:57;18.55;;;10.20;;
39958;SDS011;25639;53.634;9.880;2023-11-21T05:02:22;19.55;;;10.13;;
39958;SDS011;25639;53.634;9.880;2023-11-21T05:04:47;20.08;;;10.65;;
39958;SDS011;25639;53.634;9.880;2023-11-21T05:07:13;19.05;;;10.43;;
39958;SDS011;25639;53.634;9.880;2023-11-21T05:09:44;19.17;;;9.80;;
39958;SDS011;25639;53.634;9.880;2023-11-21T05:12:11;18.00;;;9.82;;
39958;SDS011;25639;53.634;9.880;2023-11-21T05:14:37;23.40;;;10.77;;
39958;SDS011;25639;53.634;9.880;2023-11-21T05:17:02;17.73;;;9.85;;
39958;SDS011;25639;53.634;9.880;2023-11-21T05:19:29;19.85;;;10.73;;
39958;SDS011;25639;53.634;9.880;2023-11-21T05:21:54;16.42;;;9.77;;
39958;SDS011;25639;53.634;9.880;2023-11-21T05:24:19;17.58;;;10.20;;
39958;SDS011;25639;53.634;9.880;2023-11-21T05:26:45;16.08;;;9.40;;
39958;SDS011;25639;53.634;9.880;2023-11-21T05:29:10;19.77;;;9.80;;
39958;SDS011;25639;53.634;9.880;2023-11-21T05:31:36;20.33;;;10.25;;
39958;SDS011;25639;53.634;9.880;2023-11-21T05:34:01;19.40;;;10.18;;
39958;SDS011;25639;53.634;9.880;2023-11-21T05:36:28;21.63;;;10.57;;
39958;SDS011;25639;53.634;9.880;2023-11-21T05:38:53;19.45;;;10.20;;
39958;SDS011;25639;53.634;9.880;2023-11-21T05:41:19;15.25;;;9.38;;
39958;SDS011;25639;53.634;9.880;2023-11-21T05:43:44;16.55;;;9.60;;
39958;SDS011;25639;53.634;9.880;2023-11-21T05:46:09;18.45;;;10.32;;
39958;SDS011;25639;53.634;9.880;2023-11-21T05:48:35;19.67;;;9.15;;
39958;SDS011;25639;53.634;9.880;2023-11-21T05:51:02;24.00;;;10.48;;
39958;SDS011;25639;53.634;9.880;2023-11-21T05:53:29;17.10;;;9.52;;
39958;SDS011;25639;53.634;9.880;2023-11-21T05:55:55;17.70;;;9.65;;
39958;SDS011;25639;53.634;9.880;2023-11-21T05:58:20;17.17;;;9.63;;
39958;SDS011;25639;53.634;9.880;2023-11-21T06:00:45;18.33;;;9.93;;
39958;SDS011;25639;53.634;9.880;2023-11-21T06:03:11;20.15;;;10.10;;
39958;SDS011;25639;53.634;9.880;2023-11-21T06:05:37;17.90;;;10.20;;
39958;SDS011;25639;53.634;9.880;2023-11-21T06:08:02;17.67;;;10.10;;
39958;SDS011;25639;53.634;9.880;2023-11-21T06:10:28;17.88;;;10.13;;
39958;SDS011;25639;53.634;9.880;2023-11-21T06:12:53;16.75;;;10.18;;
39958;SDS011;25639;53.634;9.880;2023-11-21T06:15:19;15.65;;;9.52;;
39958;SDS011;25639;53.634;9.880;2023-11-21T06:17:46;17.85;;;10.10;;
39958;SDS011;25639;53.634;9.880;2023-11-21T06:20:14;23.25;;;10.45;;
39958;SDS011;25639;53.634;9.880;2023-11-21T06:22:42;15.82;;;10.10;;
39958;SDS011;25639;53.634;9.880;2023-11-21T06:25:08;20.58;;;10.02;;
39958;SDS011;25639;53.634;9.880;2023-11-21T06:27:37;18.25;;;9.80;;
39958;SDS011;25639;53.634;9.880;2023-11-21T06:30:04;18.38;;;10.25;;
39958;SDS011;25639;53.634;9.880;2023-11-21T06:32:31;15.38;;;9.02;;
39958;SDS011;25639;53.634;9.880;2023-11-21T06:34:56;15.10;;;9.07;;
39958;SDS011;25639;53.634;9.880;2023-11-21T06:37:24;16.48;;;10.23;;
39958;SDS011;25639;53.634;9.880;2023-11-21T06:39:50;16.80;;;10.07;;
39958;SDS011;25639;53.634;9.880;2023-11-21T06:42:17;19.48;;;10.13;;
39958;SDS011;25639;53.634;9.880;2023-11-21T06:44:42;24.00;;;13.57;;
39958;SDS011;25639;53.634;9.880;2023-11-21T06:47:09;26.48;;;15.80;;
39958;SDS011;25639;53.634;9.880;2023-11-21T06:49:34;24.50;;;15.10;;
39958;SDS011;25639;53.634;9.880;2023-11-21T06:51:59;23.00;;;12.82;;
39958;SDS011;25639;53.634;9.880;2023-11-21T06:54:27;18.35;;;11.50;;
39958;SDS011;25639;53.634;9.880;2023-11-21T06:56:53;16.88;;;10.38;;
39958;SDS011;25639;53.634;9.880;2023-11-21T06:59:18;19.67;;;11.00;;
39958;SDS011;25639;53.634;9.880;2023-11-21T07:01:43;20.73;;;10.15;;
39958;SDS011;25639;53.634;9.880;2023-11-21T07:04:09;16.65;;;10.30;;
39958;SDS011;25639;53.634;9.880;2023-11-21T07:06:35;19.58;;;10.15;;
39958;SDS011;25639;53.634;9.880;2023-11-21T07:09:00;17.15;;;10.48;;
39958;SDS011;25639;53.634;9.880;2023-11-21T07:11:26;16.65;;;10.23;;
39958;SDS011;25639;53.634;9.880;2023-11-21T07:13:52;18.83;;;10.60;;
39958;SDS011;25639;53.634;9.880;2023-11-21T07:16:18;17.25;;;10.18;;
39958;SDS011;25639;53.634;9.880;2023-11-21T07:18:43;15.55;;;9.30;;
39958;SDS011;25639;53.634;9.880;2023-11-21T07:21:09;15.90;;;9.60;;
39958;SDS011;25639;53.634;9.880;2023-11-21T07:23:36;16.55;;;9.00;;
39958;SDS011;25639;53.634;9.880;2023-11-21T07:26:02;13.75;;;8.50;;
39958;SDS011;25639;53.634;9.880;2023-11-21T07:28:28;18.25;;;8.95;;
39958;SDS011;25639;53.634;9.880;2023-11-21T07:30:54;14.88;;;8.25;;
39958;SDS011;25639;53.634;9.880;2023-11-21T07:33:19;12.40;;;8.00;;
39958;SDS011;25639;53.634;9.880;2023-11-21T07:35:45;14.40;;;8.55;;
39958;SDS011;25639;53.634;9.880;2023-11-21T07:38:10;16.52;;;9.15;;
39958;SDS011;25639;53.634;9.880;2023-11-21T07:40:35;18.83;;;8.52;;
39958;SDS011;25639;53.634;9.880;2023-11-21T07:43:00;14.07;;;8.93;;
39958;SDS011;25639;53.634;9.880;2023-11-21T07:45:26;16.95;;;9.15;;
39958;SDS011;25639;53.634;9.880;2023-11-21T07:47:53;15.15;;;9.15;;
39958;SDS011;25639;53.634;9.880;2023-11-21T07:50:19;18.30;;;10.13;;
39958;SDS011;25639;53.634;9.880;2023-11-21T07:52:45;18.40;;;10.88;;
39958;SDS011;25639;53.634;9.880;2023-11-21T07:55:10;22.67;;;11.55;;
39958;SDS011;25639;53.634;9.880;2023-11-21T07:57:36;19.15;;;11.18;;
39958;SDS011;25639;53.634;9.880;2023-11-21T08:00:03;19.95;;;11.00;;
39958;SDS011;25639;53.634;9.880;2023-11-21T08:02:31;21.77;;;11.18;;
39958;SDS011;25639;53.634;9.880;2023-11-21T08:04:57;19.23;;;10.60;;
39958;SDS011;25639;53.634;9.880;2023-11-21T08:07:22;16.02;;;9.93;;
39958;SDS011;25639;53.634;9.880;2023-11-21T08:09:47;20.05;;;11.18;;
39958;SDS011;25639;53.634;9.880;2023-11-21T08:12:15;22.10;;;10.18;;
39958;SDS011;25639;53.634;9.880;2023-11-21T08:14:40;19.73;;;10.35;;
39958;SDS011;25639;53.634;9.880;2023-11-21T08:17:05;17.10;;;9.77;;
39958;SDS011;25639;53.634;9.880;2023-11-21T08:19:31;17.95;;;10.15;;
39958;SDS011;25639;53.634;9.880;2023-11-21T08:21:57;16.38;;;9.70;;
39958;SDS011;25639;53.634;9.880;2023-11-21T08:24:24;18.52;;;9.25;;
39958;SDS011;25639;53.634;9.880;2023-11-21T08:26:49;16.73;;;9.57;;
39958;SDS011;25639;53.634;9.880;2023-11-21T08:29:15;16.65;;;9.32;;
39958;SDS011;25639;53.634;9.880;2023-11-21T08:31:41;15.35;;;9.00;;
39958;SDS011;25639;53.634;9.880;2023-11-21T08:34:07;19.30;;;9.38;;
39958;SDS011;25639;53.634;9.880;2023-11-21T08:36:32;20.42;;;9.52;;
39958;SDS011;25639;53.634;9.880;2023-11-21T08:38:57;15.27;;;8.18;;
39958;SDS011;25639;53.634;9.880;2023-11-21T08:41:23;16.15;;;8.18;;
39958;SDS011;25639;53.634;9.880;2023-11-21T08:43:49;17.65;;;9.15;;
39958;SDS011;25639;53.634;9.880;2023-11-21T08:46:15;12.25;;;7.68;;
39958;SDS011;25639;53.634;9.880;2023-11-21T08:48:42;16.90;;;8.52;;
39958;SDS011;25639;53.634;9.880;2023-11-21T08:51:09;16.33;;;8.35;;
39958;SDS011;25639;53.634;9.880;2023-11-21T08:53:36;22.98;;;9.13;;
39958;SDS011;25639;53.634;9.880;2023-11-21T08:56:02;12.77;;;7.32;;
39958;SDS011;25639;53.634;9.880;2023-11-21T08:58:29;11.80;;;7.13;;
39958;SDS011;25639;53.634;9.880;2023-11-21T09:00:55;17.10;;;7.72;;
39958;SDS011;25639;53.634;9.880;2023-11-21T09:03:21;10.20;;;5.80;;
39958;SDS011;25639;53.634;9.880;2023-11-21T09:05:46;8.90;;;4.80;;
39958;SDS011;25639;53.634;9.880;2023-11-21T09:08:12;9.68;;;5.40;;
39958;SDS011;25639;53.634;9.880;2023-11-21T09:10:37;8.15;;;4.68;;
39958;SDS011;25639;53.634;9.880;2023-11-21T09:13:04;8.55;;;4.57;;
39958;SDS011;25639;53.634;9.880;2023-11-21T09:15:29;9.05;;;4.70;;
39958;SDS011;25639;53.634;9.880;2023-11-21T09:17:55;7.80;;;4.30;;
39958;SDS011;25639;53.634;9.880;2023-11-21T09:20:21;8.10;;;4.38;;
39958;SDS011;25639;53.634;9.880;2023-11-21T09:22:47;10.23;;;4.70;;
39958;SDS011;25639;53.634;9.880;2023-11-21T09:25:13;8.13;;;3.92;;
39958;SDS011;25639;53.634;9.880;2023-11-21T09:27:39;10.25;;;3.95;;
39958;SDS011;25639;53.634;9.880;2023-11-21T09:30:04;8.80;;;4.03;;
39958;SDS011;25639;53.634;9.880;2023-11-21T09:32:33;7.60;;;4.10;;
39958;SDS011;25639;53.634;9.880;2023-11-21T09:35:00;7.40;;;3.95;;
39958;SDS011;25639;53.634;9.880;2023-11-21T09:37:27;4.90;;;3.17;;
39958;SDS011;25639;53.634;9.880;2023-11-21T09:39:52;8.05;;;3.50;;
39958;SDS011;25639;53.634;9.880;2023-11-21T09:42:20;8.93;;;3.33;;
39958;SDS011;25639;53.634;9.880;2023-11-21T09:44:54;6.30;;;3.42;;
39958;SDS011;25639;53.634;9.880;2023-11-21T09:47:28;7.32;;;3.05;;
39958;SDS011;25639;53.634;9.880;2023-11-21T09:49:54;9.70;;;3.40;;
39958;SDS011;25639;53.634;9.880;2023-11-21T09:52:25;6.13;;;3.20;;
39958;SDS011;25639;53.634;9.880;2023-11-21T09:54:51;5.60;;;3.50;;
39958;SDS011;25639;53.634;9.880;2023-11-21T09:57:24;7.10;;;3.85;;
39958;SDS011;25639;53.634;9.880;2023-11-21T09:59:53;6.65;;;4.43;;
39958;SDS011;25639;53.634;9.880;2023-11-21T10:02:30;4.75;;;3.50;;
39958;SDS011;25639;53.634;9.880;2023-11-21T10:05:01;7.05;;;4.03;;
39958;SDS011;25639;53.634;9.880;2023-11-21T10:07:28;6.90;;;4.20;;
39958;SDS011;25639;53.634;9.880;2023-11-21T10:09:56;10.15;;;4.13;;
39958;SDS011;25639;53.634;9.880;2023-11-21T10:12:24;7.53;;;3.83;;
39958;SDS011;25639;53.634;9.880;2023-11-21T10:14:51;8.90;;;3.67;;
39958;SDS011;25639;53.634;9.880;2023-11-21T10:17:19;8.40;;;3.50;;
39958;SDS011;25639;53.634;9.880;2023-11-21T10:19:48;5.50;;;3.42;;
39958;SDS011;25639;53.634;9.880;2023-11-21T10:22:16;4.30;;;3.08;;
39958;SDS011;25639;53.634;9.880;2023-11-21T10:24:42;7.32;;;3.50;;
39958;SDS011;25639;53.634;9.880;2023-11-21T10:27:08;6.05;;;2.90;;
39958;SDS011;25639;53.634;9.880;2023-11-21T10:29:33;4.07;;;2.92;;
39958;SDS011;25639;53.634;9.880;2023-11-21T10:32:01;7.93;;;3.00;;
39958;SDS011;25639;53.634;9.880;2023-11-21T10:34:27;7.95;;;3.15;;
39958;SDS011;25639;53.634;9.880;2023-11-21T10:36:52;5.63;;;2.97;;
39958;SDS011;25639;53.634;9.880;2023-11-21T10:39:18;5.93;;;3.20;;
39958;SDS011;25639;53.634;9.880;2023-11-21T10:41:45;6.65;;;3.22;;
39958;SDS011;25639;53.634;9.880;2023-11-21T10:44:14;9.63;;;3.03;;
39958;SDS011;25639;53.634;9.880;2023-11-21T10:46:49;5.63;;;3.33;;
39958;SDS011;25639;53.634;9.880;2023-11-21T10:49:21;4.15;;;3.03;;
39958;SDS011;25639;53.634;9.880;2023-11-21T10:51:49;7.50;;;2.80;;
39958;SDS011;25639;53.634;9.880;2023-11-21T10:54:34;5.78;;;3.30;;
39958;SDS011;25639;53.634;9.880;2023-11-21T10:57:00;4.30;;;2.83;;
39958;SDS011;25639;53.634;9.880;2023-11-21T10:59:29;4.13;;;2.55;;
39958;SDS011;25639;53.634;9.880;2023-11-21T11:01:57;5.10;;;3.15;;
39958;SDS011;25639;53.634;9.880;2023-11-21T11:04:24;5.30;;;2.60;;
39958;SDS011;25639;53.634;9.880;2023-11-21T11:06:55;4.60;;;2.85;;
39958;SDS011;25639;53.634;9.880;2023-11-21T11:09:22;7.50;;;3.42;;
39958;SDS011;25639;53.634;9.880;2023-11-21T11:11:48;7.00;;;3.28;;
39958;SDS011;25639;53.634;9.880;2023-11-21T11:14:14;6.45;;;3.50;;
39958;SDS011;25639;53.634;9.880;2023-11-21T11:16:40;5.80;;;3.28;;
39958;SDS011;25639;53.634;9.880;2023-11-21T11:19:06;5.78;;;3.42;;
39958;SDS011;25639;53.634;9.880;2023-11-21T11:24:13;4.38;;;3.03;;
39958;SDS011;25639;53.634;9.880;2023-11-21T11:27:04;5.27;;;3.00;;
39958;SDS011;25639;53.634;9.880;2023-11-21T11:29:51;4.40;;;2.95;;
39958;SDS011;25639;53.634;9.880;2023-11-21T11:32:36;5.85;;;2.95;;
39958;SDS011;25639;53.634;9.880;2023-11-21T11:35:34;6.85;;;3.10;;
39958;SDS011;25639;53.634;9.880;2023-11-21T11:38:20;4.65;;;2.80;;
39958;SDS011;25639;53.634;9.880;2023-11-21T11:40:47;4.25;;;2.78;;
39958;SDS011;25639;53.634;9.880;2023-11-21T11:43:12;4.28;;;3.03;;
39958;SDS011;25639;53.634;9.880;2023-11-21T11:45:39;6.50;;;2.80;;
39958;SDS011;25639;53.634;9.880;2023-11-21T11:48:06;7.05;;;2.63;;
39958;SDS011;25639;53.634;9.880;2023-11-21T11:50:32;4.50;;;2.60;;
39958;SDS011;25639;53.634;9.880;2023-11-21T11:53:11;4.45;;;2.90;;
39958;SDS011;25639;53.634;9.880;2023-11-21T11:55:40;5.13;;;3.30;;
39958;SDS011;25639;53.634;9.880;2023-11-21T11:58:06;5.25;;;3.10;;
39958;SDS011;25639;53.634;9.880;2023-11-21T12:00:33;4.53;;;2.97;;
39958;SDS011;25639;53.634;9.880;2023-11-21T12:03:02;5.32;;;2.67;;
39958;SDS011;25639;53.634;9.880;2023-11-21T12:05:29;6.40;;;3.17;;
39958;SDS011;25639;53.634;9.880;2023-11-21T12:08:06;5.93;;;2.92;;
39958;SDS011;25639;53.634;9.880;2023-11-21T12:10:36;6.25;;;3.05;;
39958;SDS011;25639;53.634;9.880;2023-11-21T12:13:06;4.93;;;3.45;;
39958;SDS011;25639;53.634;9.880;2023-11-21T12:15:33;5.75;;;3.20;;
39958;SDS011;25639;53.634;9.880;2023-11-21T12:18:00;6.32;;;3.10;;
39958;SDS011;25639;53.634;9.880;2023-11-21T12:20:26;5.78;;;3.00;;
39958;SDS011;25639;53.634;9.880;2023-11-21T12:22:56;5.88;;;2.50;;
39958;SDS011;25639;53.634;9.880;2023-11-21T12:25:27;4.35;;;3.15;;
39958;SDS011;25639;53.634;9.880;2023-11-21T12:27:54;5.20;;;2.85;;
39958;SDS011;25639;53.634;9.880;2023-11-21T12:30:21;6.05;;;2.63;;
39958;SDS011;25639;53.634;9.880;2023-11-21T12:32:48;6.68;;;3.22;;
39958;SDS011;25639;53.634;9.880;2023-11-21T12:35:16;6.40;;;3.08;;
39958;SDS011;25639;53.634;9.880;2023-11-21T12:37:44;5.22;;;3.15;;
39958;SDS011;25639;53.634;9.880;2023-11-21T12:40:10;8.13;;;3.60;;
39958;SDS011;25639;53.634;9.880;2023-11-21T12:42:40;5.95;;;3.65;;
39958;SDS011;25639;53.634;9.880;2023-11-21T12:45:07;5.97;;;3.55;;
39958;SDS011;25639;53.634;9.880;2023-11-21T12:47:36;4.97;;;2.80;;
39958;SDS011;25639;53.634;9.880;2023-11-21T12:50:02;7.85;;;3.08;;
39958;SDS011;25639;53.634;9.880;2023-11-21T12:52:28;8.80;;;3.10;;
39958;SDS011;25639;53.634;9.880;2023-11-21T12:54:53;9.88;;;3.22;;
39958;SDS011;25639;53.634;9.880;2023-11-21T12:57:19;4.55;;;2.53;;
39958;SDS011;25639;53.634;9.880;2023-11-21T12:59:45;4.82;;;2.60;;
39958;SDS011;25639;53.634;9.880;2023-11-21T13:02:12;4.85;;;2.85;;
39958;SDS011;25639;53.634;9.880;2023-11-21T13:04:40;7.85;;;3.05;;
39958;SDS011;25639;53.634;9.880;2023-11-21T13:07:05;5.38;;;2.63;;
39958;SDS011;25639;53.634;9.880;2023-11-21T13:12:06;4.45;;;2.90;;
39958;SDS011;25639;53.634;9.880;2023-11-21T13:14:33;5.63;;;3.35;;
39958;SDS011;25639;53.634;9.880;2023-11-21T13:16:58;4.03;;;2.97;;
39958;SDS011;25639;53.634;9.880;2023-11-21T13:19:24;5.45;;;3.13;;
39958;SDS011;25639;53.634;9.880;2023-11-21T13:21:49;14.38;;;3.42;;
39958;SDS011;25639;53.634;9.880;2023-11-21T13:24:15;3.75;;;2.75;;
39958;SDS011;25639;53.634;9.880;2023-11-21T13:26:41;5.65;;;3.33;;
39958;SDS011;25639;53.634;9.880;2023-11-21T13:29:07;5.32;;;3.00;;
39958;SDS011;25639;53.634;9.880;2023-11-21T13:31:32;4.68;;;3.20;;
39958;SDS011;25639;53.634;9.880;2023-11-21T13:34:01;6.00;;;3.38;;
39958;SDS011;25639;53.634;9.880;2023-11-21T13:36:30;7.22;;;3.50;;
39958;SDS011;25639;53.634;9.880;2023-11-21T13:38:58;8.43;;;3.20;;
39958;SDS011;25639;53.634;9.880;2023-11-21T13:41:24;4.90;;;3.35;;
39958;SDS011;25639;53.634;9.880;2023-11-21T13:43:55;9.50;;;4.03;;
39958;SDS011;25639;53.634;9.880;2023-11-21T13:46:31;5.13;;;3.78;;
39958;SDS011;25639;53.634;9.880;2023-11-21T13:49:01;8.93;;;3.95;;
39958;SDS011;25639;53.634;9.880;2023-11-21T13:51:27;6.75;;;3.55;;
39958;SDS011;25639;53.634;9.880;2023-11-21T13:54:04;7.95;;;3.55;;
39958;SDS011;25639;53.634;9.880;2023-11-21T13:56:34;4.78;;;3.53;;
39958;SDS011;25639;53.634;9.880;2023-11-21T13:58:59;7.05;;;3.72;;
39958;SDS011;25639;53.634;9.880;2023-11-21T14:01:33;6.70;;;3.33;;
39958;SDS011;25639;53.634;9.880;2023-11-21T14:04:17;9.90;;;3.70;;
39958;SDS011;25639;53.634;9.880;2023-11-21T14:06:43;5.55;;;3.78;;
39958;SDS011;25639;53.634;9.880;2023-11-21T14:09:19;6.28;;;3.65;;
39958;SDS011;25639;53.634;9.880;2023-11-21T14:12:00;5.40;;;3.58;;
39958;SDS011;25639;53.634;9.880;2023-11-21T14:14:28;6.55;;;4.00;;
39958;SDS011;25639;53.634;9.880;2023-11-21T14:16:53;5.95;;;3.67;;
39958;SDS011;25639;53.634;9.880;2023-11-21T14:19:19;7.50;;;4.10;;
39958;SDS011;25639;53.634;9.880;2023-11-21T14:21:45;6.13;;;3.53;;
39958;SDS011;25639;53.634;9.880;2023-11-21T14:24:13;6.30;;;3.53;;
39958;SDS011;25639;53.634;9.880;2023-11-21T14:26:42;7.95;;;4.10;;
39958;SDS011;25639;53.634;9.880;2023-11-21T14:29:08;6.30;;;3.58;;
39958;SDS011;25639;53.634;9.880;2023-11-21T14:31:34;7.57;;;3.58;;
39958;SDS011;25639;53.634;9.880;2023-11-21T14:34:00;5.00;;;2.90;;
39958;SDS011;25639;53.634;9.880;2023-11-21T14:36:31;5.07;;;3.38;;